Chieftan — FNSB — position and weather

sailwx.info

Track history (hours):
 
Tides and Currents Weather Stations Pressure Air Temp Water Temp Dewpoint Dewpoint Depression Visibility Wind Speed Wind Dir Waves Ship Positions

Chieftan

Last reported at 2017-Sep-19 22:35 UTC. Time now 2017-Sep-21 03:16 UTC.
Position N 14°17' W 061°05'.

Length 25 m; draft 3.5 m.

Type: Tug. MMSI: 347001900.

Date/timePositionNaut miles runAvg speedWind from/ knotsBaromVisibWave heightAir tempDewpointWater temp
2017-Sep-19 22:35N 14°17' W 061°05'0 4.6
2017-Sep-19 22:30N 14°16' W 061°05'2 4.2
2017-Sep-19 22:00N 14°14' W 061°04'3 5.1
2017-Sep-19 21:30N 14°12' W 061°03'1 2.8
2017-Sep-19 21:00N 14°10' W 061°03'1 1.7
2017-Sep-19 20:30N 14°10' W 061°03'15 0.6
2017-Sep-18 18:49N 13°55' W 061°07'3 8.3
2017-Sep-18 18:28N 13°58' W 061°06'4 8.6
2017-Sep-18 18:00N 14°02' W 061°05'5 9.4
2017-Sep-18 17:30N 14°06' W 061°04'5 9.6
2017-Sep-18 17:00N 14°11' W 061°04'5 9.7
2017-Sep-18 16:30N 14°16' W 061°05'  
2017-Sep-15 14:40N 14°35' W 061°05'2 8.8
2017-Sep-15 14:29N 14°36' W 061°04'0 0.1
2017-Sep-15 09:52N 14°35' W 061°03'0 0.6
2017-Sep-15 09:28N 14°36' W 061°03'1 1.0
2017-Sep-15 08:58N 14°36' W 061°04'1 0.0
2017-Sep-14 17:16N 14°36' W 061°04'0 0.0
2017-Sep-14 16:49N 14°36' W 061°04'0 0.0
2017-Sep-14 16:28N 14°36' W 061°04'0 0.0
2017-Sep-14 15:18N 14°36' W 061°04'0 0.0
2017-Sep-14 15:00N 14°36' W 061°04'0 0.0
2017-Sep-14 12:23N 14°36' W 061°04'0 0.0
2017-Sep-14 11:40N 14°36' W 061°04'0 0.0
2017-Sep-14 11:30N 14°36' W 061°04'1 0.7
2017-Sep-14 10:38N 14°36' W 061°04'0 3.2
2017-Sep-14 10:30N 14°36' W 061°03'1 1.2
2017-Sep-14 10:00N 14°35' W 061°04'1 1.5
2017-Sep-14 09:30N 14°35' W 061°03'1 1.7
2017-Sep-14 09:00N 14°35' W 061°04'1 0.1
2017-Sep-13 23:16N 14°36' W 061°04'0 0.0
2017-Sep-13 14:55N 14°36' W 061°04'0 0.0
2017-Sep-13 12:45N 14°36' W 061°04'0 0.0
2017-Sep-13 12:21N 14°36' W 061°04'0 0.0
2017-Sep-13 11:52N 14°36' W 061°04'0 0.0
2017-Sep-13 03:05N 14°36' W 061°04'1 2.7
2017-Sep-13 02:51N 14°36' W 061°04'1 1.6
2017-Sep-13 02:30N 14°35' W 061°03'1 0.1
2017-Sep-12 19:00N 14°36' W 061°04'0 0.5
2017-Sep-12 18:30N 14°36' W 061°04'0 0.3
2017-Sep-12 18:00N 14°36' W 061°04'0 0.1
2017-Sep-12 17:30N 14°36' W 061°04'0 0.2
2017-Sep-12 15:03N 14°36' W 061°04'0 9.1
2017-Sep-12 15:00N 14°35' W 061°03'0 0.6
2017-Sep-12 14:30N 14°35' W 061°04'1 1.4
2017-Sep-12 13:56N 14°36' W 061°04'0 0.3
2017-Sep-12 13:28N 14°36' W 061°04'2 3.6
2017-Sep-12 13:00N 14°35' W 061°05'1 2.1
2017-Sep-12 12:30N 14°35' W 061°04'0 0.0
2017-Sep-12 09:28N 14°35' W 061°04'  
Track history (hours):
 
Tides and Currents Weather Stations Pressure Air Temp Water Temp Dewpoint Dewpoint Depression Visibility Wind Speed Wind Dir Waves Ship Positions

Chieftan

Last reported at 2017-Sep-19 22:35 UTC. Time now 2017-Sep-21 03:16 UTC.
Position N 14°17' W 061°05'.

Length 25 m; draft 3.5 m.

Type: Tug. MMSI: 347001900.

Date/timePositionNaut miles runAvg speedWind from/ knotsBaromVisibWave heightAir tempDewpointWater temp
2017-Sep-19 22:35N 14°17' W 061°05'0 4.6
2017-Sep-19 22:30N 14°16' W 061°05'2 4.2
2017-Sep-19 22:00N 14°14' W 061°04'3 5.1
2017-Sep-19 21:30N 14°12' W 061°03'1 2.8
2017-Sep-19 21:00N 14°10' W 061°03'1 1.7
2017-Sep-19 20:30N 14°10' W 061°03'15 0.6
2017-Sep-18 18:49N 13°55' W 061°07'3 8.3
2017-Sep-18 18:28N 13°58' W 061°06'4 8.6
2017-Sep-18 18:00N 14°02' W 061°05'5 9.4
2017-Sep-18 17:30N 14°06' W 061°04'5 9.6
2017-Sep-18 17:00N 14°11' W 061°04'5 9.7
2017-Sep-18 16:30N 14°16' W 061°05'  
2017-Sep-15 14:40N 14°35' W 061°05'2 8.8
2017-Sep-15 14:29N 14°36' W 061°04'0 0.1
2017-Sep-15 09:52N 14°35' W 061°03'0 0.6
2017-Sep-15 09:28N 14°36' W 061°03'1 1.0
2017-Sep-15 08:58N 14°36' W 061°04'1 0.0
2017-Sep-14 17:16N 14°36' W 061°04'0 0.0
2017-Sep-14 16:49N 14°36' W 061°04'0 0.0
2017-Sep-14 16:28N 14°36' W 061°04'0 0.0
2017-Sep-14 15:18N 14°36' W 061°04'0 0.0
2017-Sep-14 15:00N 14°36' W 061°04'0 0.0
2017-Sep-14 12:23N 14°36' W 061°04'0 0.0
2017-Sep-14 11:40N 14°36' W 061°04'0 0.0
2017-Sep-14 11:30N 14°36' W 061°04'1 0.7
2017-Sep-14 10:38N 14°36' W 061°04'0 3.2
2017-Sep-14 10:30N 14°36' W 061°03'1 1.2
2017-Sep-14 10:00N 14°35' W 061°04'1 1.5
2017-Sep-14 09:30N 14°35' W 061°03'1 1.7
2017-Sep-14 09:00N 14°35' W 061°04'1 0.1
2017-Sep-13 23:16N 14°36' W 061°04'0 0.0
2017-Sep-13 14:55N 14°36' W 061°04'0 0.0
2017-Sep-13 12:45N 14°36' W 061°04'0 0.0
2017-Sep-13 12:21N 14°36' W 061°04'0 0.0
2017-Sep-13 11:52N 14°36' W 061°04'0 0.0
2017-Sep-13 03:05N 14°36' W 061°04'1 2.7
2017-Sep-13 02:51N 14°36' W 061°04'1 1.6
2017-Sep-13 02:30N 14°35' W 061°03'1 0.1
2017-Sep-12 19:00N 14°36' W 061°04'0 0.5
2017-Sep-12 18:30N 14°36' W 061°04'0 0.3
2017-Sep-12 18:00N 14°36' W 061°04'0 0.1
2017-Sep-12 17:30N 14°36' W 061°04'0 0.2
2017-Sep-12 15:03N 14°36' W 061°04'0 9.1
2017-Sep-12 15:00N 14°35' W 061°03'0 0.6
2017-Sep-12 14:30N 14°35' W 061°04'1 1.4
2017-Sep-12 13:56N 14°36' W 061°04'0 0.3
2017-Sep-12 13:28N 14°36' W 061°04'2 3.6
2017-Sep-12 13:00N 14°35' W 061°05'1 2.1
2017-Sep-12 12:30N 14°35' W 061°04'0 0.0
2017-Sep-12 09:28N 14°35' W 061°04'  

Dump ship's entire track history